sensor_id;sensor_type;location;lat;lon;timestamp;P1;durP1;ratioP1;P2;durP2;ratioP2
41739;SDS011;27422;52.444;13.300;2022-10-30T00:02:07;17.85;;;10.25;;
41739;SDS011;27422;52.444;13.300;2022-10-30T00:04:32;16.88;;;9.77;;
41739;SDS011;27422;52.444;13.300;2022-10-30T00:06:58;15.45;;;9.65;;
41739;SDS011;27422;52.444;13.300;2022-10-30T00:09:23;15.85;;;9.88;;
41739;SDS011;27422;52.444;13.300;2022-10-30T00:11:49;15.98;;;9.65;;
41739;SDS011;27422;52.444;13.300;2022-10-30T00:14:14;17.90;;;10.13;;
41739;SDS011;27422;52.444;13.300;2022-10-30T00:16:40;18.15;;;10.82;;
41739;SDS011;27422;52.444;13.300;2022-10-30T00:19:05;14.93;;;9.55;;
41739;SDS011;27422;52.444;13.300;2022-10-30T00:21:31;15.85;;;9.32;;
41739;SDS011;27422;52.444;13.300;2022-10-30T00:23:56;16.95;;;10.13;;
41739;SDS011;27422;52.444;13.300;2022-10-30T00:26:22;16.88;;;9.95;;
41739;SDS011;27422;52.444;13.300;2022-10-30T00:28:51;21.15;;;10.48;;
41739;SDS011;27422;52.444;13.300;2022-10-30T00:31:18;16.73;;;10.45;;
41739;SDS011;27422;52.444;13.300;2022-10-30T00:33:47;20.13;;;10.82;;
41739;SDS011;27422;52.444;13.300;2022-10-30T00:36:14;16.80;;;9.60;;
41739;SDS011;27422;52.444;13.300;2022-10-30T00:38:40;19.17;;;11.07;;
41739;SDS011;27422;52.444;13.300;2022-10-30T00:41:05;16.48;;;9.88;;
41739;SDS011;27422;52.444;13.300;2022-10-30T00:43:35;15.75;;;9.27;;
41739;SDS011;27422;52.444;13.300;2022-10-30T00:46:06;16.90;;;9.65;;
41739;SDS011;27422;52.444;13.300;2022-10-30T00:48:47;17.38;;;9.90;;
41739;SDS011;27422;52.444;13.300;2022-10-30T00:51:14;15.35;;;10.05;;
41739;SDS011;27422;52.444;13.300;2022-10-30T00:53:42;17.25;;;10.57;;
41739;SDS011;27422;52.444;13.300;2022-10-30T00:56:07;15.93;;;10.05;;
41739;SDS011;27422;52.444;13.300;2022-10-30T00:58:47;18.33;;;10.23;;
41739;SDS011;27422;52.444;13.300;2022-10-30T01:01:19;17.48;;;10.88;;
41739;SDS011;27422;52.444;13.300;2022-10-30T01:03:46;17.42;;;10.80;;
41739;SDS011;27422;52.444;13.300;2022-10-30T01:06:13;17.20;;;10.55;;
41739;SDS011;27422;52.444;13.300;2022-10-30T01:08:39;21.05;;;11.73;;
41739;SDS011;27422;52.444;13.300;2022-10-30T01:11:05;17.85;;;11.82;;
41739;SDS011;27422;52.444;13.300;2022-10-30T01:13:32;20.75;;;11.95;;
41739;SDS011;27422;52.444;13.300;2022-10-30T01:18:57;17.60;;;11.18;;
41739;SDS011;27422;52.444;13.300;2022-10-30T01:21:37;18.52;;;11.13;;
41739;SDS011;27422;52.444;13.300;2022-10-30T01:24:21;18.83;;;11.23;;
41739;SDS011;27422;52.444;13.300;2022-10-30T01:29:45;16.70;;;10.48;;
41739;SDS011;27422;52.444;13.300;2022-10-30T01:35:39;18.73;;;12.10;;
41739;SDS011;27422;52.444;13.300;2022-10-30T01:38:20;16.55;;;11.75;;
41739;SDS011;27422;52.444;13.300;2022-10-30T01:40:49;21.15;;;11.80;;
41739;SDS011;27422;52.444;13.300;2022-10-30T01:43:14;19.55;;;11.30;;
41739;SDS011;27422;52.444;13.300;2022-10-30T01:48:15;16.45;;;10.90;;
41739;SDS011;27422;52.444;13.300;2022-10-30T01:51:53;18.60;;;11.23;;
41739;SDS011;27422;52.444;13.300;2022-10-30T01:56:43;19.30;;;12.70;;
41739;SDS011;27422;52.444;13.300;2022-10-30T02:01:54;18.88;;;11.98;;
41739;SDS011;27422;52.444;13.300;2022-10-30T02:04:20;18.13;;;12.52;;
41739;SDS011;27422;52.444;13.300;2022-10-30T02:06:45;18.65;;;11.45;;
41739;SDS011;27422;52.444;13.300;2022-10-30T02:09:13;18.83;;;11.23;;
41739;SDS011;27422;52.444;13.300;2022-10-30T02:11:39;20.30;;;12.32;;
41739;SDS011;27422;52.444;13.300;2022-10-30T02:14:05;21.30;;;12.02;;
41739;SDS011;27422;52.444;13.300;2022-10-30T02:16:34;19.15;;;12.70;;
41739;SDS011;27422;52.444;13.300;2022-10-30T02:19:03;18.73;;;11.40;;
41739;SDS011;27422;52.444;13.300;2022-10-30T02:21:30;17.67;;;12.00;;
41739;SDS011;27422;52.444;13.300;2022-10-30T02:23:55;23.55;;;11.60;;
41739;SDS011;27422;52.444;13.300;2022-10-30T02:26:21;21.50;;;11.45;;
41739;SDS011;27422;52.444;13.300;2022-10-30T02:28:46;17.50;;;11.77;;
41739;SDS011;27422;52.444;13.300;2022-10-30T02:31:11;19.13;;;11.88;;
41739;SDS011;27422;52.444;13.300;2022-10-30T02:33:37;20.38;;;12.18;;
41739;SDS011;27422;52.444;13.300;2022-10-30T02:36:02;17.40;;;11.35;;
41739;SDS011;27422;52.444;13.300;2022-10-30T02:38:28;18.02;;;11.25;;
41739;SDS011;27422;52.444;13.300;2022-10-30T02:40:55;17.25;;;11.25;;
41739;SDS011;27422;52.444;13.300;2022-10-30T02:43:22;18.77;;;10.75;;
41739;SDS011;27422;52.444;13.300;2022-10-30T02:45:50;15.63;;;10.80;;
41739;SDS011;27422;52.444;13.300;2022-10-30T02:48:16;16.80;;;10.75;;
41739;SDS011;27422;52.444;13.300;2022-10-30T02:50:41;19.42;;;10.80;;
41739;SDS011;27422;52.444;13.300;2022-10-30T02:53:06;17.00;;;10.90;;
41739;SDS011;27422;52.444;13.300;2022-10-30T02:55:32;20.33;;;11.02;;
41739;SDS011;27422;52.444;13.300;2022-10-30T02:57:57;18.05;;;11.45;;
41739;SDS011;27422;52.444;13.300;2022-10-30T03:00:23;18.05;;;10.38;;
41739;SDS011;27422;52.444;13.300;2022-10-30T03:02:53;15.30;;;10.50;;
41739;SDS011;27422;52.444;13.300;2022-10-30T03:05:21;19.88;;;11.57;;
41739;SDS011;27422;52.444;13.300;2022-10-30T03:10:32;19.25;;;10.82;;
41739;SDS011;27422;52.444;13.300;2022-10-30T03:12:58;21.52;;;10.80;;
41739;SDS011;27422;52.444;13.300;2022-10-30T03:15:23;18.85;;;11.52;;
41739;SDS011;27422;52.444;13.300;2022-10-30T03:17:48;16.88;;;10.70;;
41739;SDS011;27422;52.444;13.300;2022-10-30T03:20:16;15.25;;;10.52;;
41739;SDS011;27422;52.444;13.300;2022-10-30T03:22:41;19.17;;;10.88;;
41739;SDS011;27422;52.444;13.300;2022-10-30T03:25:07;21.42;;;10.27;;
41739;SDS011;27422;52.444;13.300;2022-10-30T03:27:33;17.02;;;10.68;;
41739;SDS011;27422;52.444;13.300;2022-10-30T03:29:58;16.33;;;10.85;;
41739;SDS011;27422;52.444;13.300;2022-10-30T03:32:23;16.70;;;10.32;;
41739;SDS011;27422;52.444;13.300;2022-10-30T03:34:49;16.88;;;10.80;;
41739;SDS011;27422;52.444;13.300;2022-10-30T03:37:14;19.45;;;11.18;;
41739;SDS011;27422;52.444;13.300;2022-10-30T03:39:39;18.98;;;10.68;;
41739;SDS011;27422;52.444;13.300;2022-10-30T03:42:05;18.50;;;11.20;;
41739;SDS011;27422;52.444;13.300;2022-10-30T03:44:30;16.88;;;10.82;;
41739;SDS011;27422;52.444;13.300;2022-10-30T03:46:58;17.52;;;10.95;;
41739;SDS011;27422;52.444;13.300;2022-10-30T03:49:24;17.20;;;10.70;;
41739;SDS011;27422;52.444;13.300;2022-10-30T03:51:49;17.95;;;11.32;;
41739;SDS011;27422;52.444;13.300;2022-10-30T03:54:14;22.13;;;11.25;;
41739;SDS011;27422;52.444;13.300;2022-10-30T03:56:40;17.98;;;11.13;;
41739;SDS011;27422;52.444;13.300;2022-10-30T03:59:05;17.95;;;10.45;;
41739;SDS011;27422;52.444;13.300;2022-10-30T04:01:31;17.10;;;10.60;;
41739;SDS011;27422;52.444;13.300;2022-10-30T04:03:56;20.65;;;11.13;;
41739;SDS011;27422;52.444;13.300;2022-10-30T04:06:21;24.95;;;10.80;;
41739;SDS011;27422;52.444;13.300;2022-10-30T04:08:47;18.30;;;11.43;;
41739;SDS011;27422;52.444;13.300;2022-10-30T04:11:12;17.10;;;10.63;;
41739;SDS011;27422;52.444;13.300;2022-10-30T04:13:40;15.60;;;10.18;;
41739;SDS011;27422;52.444;13.300;2022-10-30T04:16:06;18.40;;;11.27;;
41739;SDS011;27422;52.444;13.300;2022-10-30T04:18:31;16.40;;;10.45;;
41739;SDS011;27422;52.444;13.300;2022-10-30T04:20:58;16.23;;;10.02;;
41739;SDS011;27422;52.444;13.300;2022-10-30T04:23:24;18.58;;;10.40;;
41739;SDS011;27422;52.444;13.300;2022-10-30T04:25:49;16.17;;;9.73;;
41739;SDS011;27422;52.444;13.300;2022-10-30T04:28:15;19.92;;;9.95;;
41739;SDS011;27422;52.444;13.300;2022-10-30T04:30:40;16.15;;;10.32;;
41739;SDS011;27422;52.444;13.300;2022-10-30T04:33:07;15.90;;;9.95;;
41739;SDS011;27422;52.444;13.300;2022-10-30T04:35:35;19.63;;;10.07;;
41739;SDS011;27422;52.444;13.300;2022-10-30T04:38:02;15.93;;;9.80;;
41739;SDS011;27422;52.444;13.300;2022-10-30T04:40:30;16.02;;;9.57;;
41739;SDS011;27422;52.444;13.300;2022-10-30T04:42:57;16.10;;;9.77;;
41739;SDS011;27422;52.444;13.300;2022-10-30T04:45:23;16.85;;;9.98;;
41739;SDS011;27422;52.444;13.300;2022-10-30T04:47:49;17.90;;;10.48;;
41739;SDS011;27422;52.444;13.300;2022-10-30T04:50:14;16.25;;;10.50;;
41739;SDS011;27422;52.444;13.300;2022-10-30T04:55:08;17.23;;;10.18;;
41739;SDS011;27422;52.444;13.300;2022-10-30T04:57:34;15.18;;;9.95;;
41739;SDS011;27422;52.444;13.300;2022-10-30T05:00:02;20.50;;;10.93;;
41739;SDS011;27422;52.444;13.300;2022-10-30T05:02:30;17.20;;;10.07;;
41739;SDS011;27422;52.444;13.300;2022-10-30T05:04:56;16.90;;;10.10;;
41739;SDS011;27422;52.444;13.300;2022-10-30T05:07:21;16.30;;;10.25;;
41739;SDS011;27422;52.444;13.300;2022-10-30T05:09:47;17.08;;;10.05;;
41739;SDS011;27422;52.444;13.300;2022-10-30T05:12:12;15.25;;;10.27;;
41739;SDS011;27422;52.444;13.300;2022-10-30T05:14:38;15.02;;;10.27;;
41739;SDS011;27422;52.444;13.300;2022-10-30T05:17:03;18.65;;;10.30;;
41739;SDS011;27422;52.444;13.300;2022-10-30T05:19:28;17.35;;;10.50;;
41739;SDS011;27422;52.444;13.300;2022-10-30T05:21:54;15.23;;;10.52;;
41739;SDS011;27422;52.444;13.300;2022-10-30T05:24:19;17.55;;;10.13;;
41739;SDS011;27422;52.444;13.300;2022-10-30T05:26:45;15.55;;;10.20;;
41739;SDS011;27422;52.444;13.300;2022-10-30T05:29:11;17.70;;;9.85;;
41739;SDS011;27422;52.444;13.300;2022-10-30T05:31:37;18.20;;;11.25;;
41739;SDS011;27422;52.444;13.300;2022-10-30T05:34:02;17.52;;;10.50;;
41739;SDS011;27422;52.444;13.300;2022-10-30T05:36:31;18.77;;;10.73;;
41739;SDS011;27422;52.444;13.300;2022-10-30T05:38:56;18.13;;;10.88;;
41739;SDS011;27422;52.444;13.300;2022-10-30T05:41:22;18.55;;;10.45;;
41739;SDS011;27422;52.444;13.300;2022-10-30T05:43:47;16.63;;;10.30;;
41739;SDS011;27422;52.444;13.300;2022-10-30T05:46:12;17.15;;;10.45;;
41739;SDS011;27422;52.444;13.300;2022-10-30T05:48:41;15.35;;;10.10;;
41739;SDS011;27422;52.444;13.300;2022-10-30T05:51:06;17.75;;;10.65;;
41739;SDS011;27422;52.444;13.300;2022-10-30T05:53:32;15.85;;;10.00;;
41739;SDS011;27422;52.444;13.300;2022-10-30T05:55:58;14.95;;;9.80;;
41739;SDS011;27422;52.444;13.300;2022-10-30T05:58:24;19.52;;;10.30;;
41739;SDS011;27422;52.444;13.300;2022-10-30T06:00:51;17.60;;;9.90;;
41739;SDS011;27422;52.444;13.300;2022-10-30T06:03:17;17.52;;;9.45;;
41739;SDS011;27422;52.444;13.300;2022-10-30T06:05:45;17.10;;;9.80;;
41739;SDS011;27422;52.444;13.300;2022-10-30T06:08:11;16.65;;;9.25;;
41739;SDS011;27422;52.444;13.300;2022-10-30T06:10:37;19.50;;;10.00;;
41739;SDS011;27422;52.444;13.300;2022-10-30T06:13:03;13.05;;;8.93;;
41739;SDS011;27422;52.444;13.300;2022-10-30T06:15:30;16.48;;;8.98;;
41739;SDS011;27422;52.444;13.300;2022-10-30T06:17:56;14.20;;;8.45;;
41739;SDS011;27422;52.444;13.300;2022-10-30T06:20:22;14.85;;;8.50;;
41739;SDS011;27422;52.444;13.300;2022-10-30T06:25:41;15.38;;;9.10;;
41739;SDS011;27422;52.444;13.300;2022-10-30T06:28:07;15.18;;;8.93;;
41739;SDS011;27422;52.444;13.300;2022-10-30T06:30:34;14.75;;;8.75;;
41739;SDS011;27422;52.444;13.300;2022-10-30T06:33:00;13.57;;;8.98;;
41739;SDS011;27422;52.444;13.300;2022-10-30T06:35:27;15.40;;;8.90;;
41739;SDS011;27422;52.444;13.300;2022-10-30T06:37:55;15.02;;;9.50;;
41739;SDS011;27422;52.444;13.300;2022-10-30T06:40:22;16.25;;;9.13;;
41739;SDS011;27422;52.444;13.300;2022-10-30T06:42:48;13.98;;;8.93;;
41739;SDS011;27422;52.444;13.300;2022-10-30T06:45:16;16.27;;;9.25;;
41739;SDS011;27422;52.444;13.300;2022-10-30T06:47:43;13.57;;;8.73;;
41739;SDS011;27422;52.444;13.300;2022-10-30T06:50:12;14.60;;;8.38;;
41739;SDS011;27422;52.444;13.300;2022-10-30T06:52:40;13.80;;;8.48;;
41739;SDS011;27422;52.444;13.300;2022-10-30T06:55:05;14.00;;;8.57;;
41739;SDS011;27422;52.444;13.300;2022-10-30T06:57:31;14.43;;;8.60;;
41739;SDS011;27422;52.444;13.300;2022-10-30T06:59:57;16.77;;;8.45;;
41739;SDS011;27422;52.444;13.300;2022-10-30T07:02:22;13.45;;;8.02;;
41739;SDS011;27422;52.444;13.300;2022-10-30T07:04:48;13.20;;;8.48;;
41739;SDS011;27422;52.444;13.300;2022-10-30T07:07:13;12.60;;;8.02;;
41739;SDS011;27422;52.444;13.300;2022-10-30T07:09:39;13.20;;;7.97;;
41739;SDS011;27422;52.444;13.300;2022-10-30T07:12:05;13.35;;;8.90;;
41739;SDS011;27422;52.444;13.300;2022-10-30T07:14:31;17.95;;;8.68;;
41739;SDS011;27422;52.444;13.300;2022-10-30T07:16:56;14.45;;;8.07;;
41739;SDS011;27422;52.444;13.300;2022-10-30T07:19:22;15.20;;;8.27;;
41739;SDS011;27422;52.444;13.300;2022-10-30T07:21:47;15.52;;;8.10;;
41739;SDS011;27422;52.444;13.300;2022-10-30T07:24:13;12.65;;;7.50;;
41739;SDS011;27422;52.444;13.300;2022-10-30T07:26:38;12.07;;;8.00;;
41739;SDS011;27422;52.444;13.300;2022-10-30T07:29:06;13.23;;;8.23;;
41739;SDS011;27422;52.444;13.300;2022-10-30T07:31:34;14.50;;;8.10;;
41739;SDS011;27422;52.444;13.300;2022-10-30T07:34:00;16.02;;;8.48;;
41739;SDS011;27422;52.444;13.300;2022-10-30T07:36:25;12.20;;;7.65;;
41739;SDS011;27422;52.444;13.300;2022-10-30T07:38:50;12.82;;;7.38;;
41739;SDS011;27422;52.444;13.300;2022-10-30T07:41:16;12.20;;;7.93;;
41739;SDS011;27422;52.444;13.300;2022-10-30T07:43:42;16.08;;;7.68;;
41739;SDS011;27422;52.444;13.300;2022-10-30T07:46:08;12.85;;;7.30;;
41739;SDS011;27422;52.444;13.300;2022-10-30T07:48:33;13.50;;;7.57;;
41739;SDS011;27422;52.444;13.300;2022-10-30T07:50:59;13.82;;;8.15;;
41739;SDS011;27422;52.444;13.300;2022-10-30T07:53:24;10.85;;;6.53;;
41739;SDS011;27422;52.444;13.300;2022-10-30T07:55:50;23.60;;;7.30;;
41739;SDS011;27422;52.444;13.300;2022-10-30T07:58:15;13.32;;;7.18;;
41739;SDS011;27422;52.444;13.300;2022-10-30T08:00:41;10.75;;;6.55;;
41739;SDS011;27422;52.444;13.300;2022-10-30T08:03:07;14.00;;;7.10;;
41739;SDS011;27422;52.444;13.300;2022-10-30T08:05:36;14.33;;;6.60;;
41739;SDS011;27422;52.444;13.300;2022-10-30T08:08:01;11.55;;;7.03;;
41739;SDS011;27422;52.444;13.300;2022-10-30T08:10:27;10.63;;;6.15;;
41739;SDS011;27422;52.444;13.300;2022-10-30T08:12:55;11.50;;;6.80;;
41739;SDS011;27422;52.444;13.300;2022-10-30T08:15:20;11.20;;;6.50;;
41739;SDS011;27422;52.444;13.300;2022-10-30T08:17:47;10.13;;;6.50;;
41739;SDS011;27422;52.444;13.300;2022-10-30T08:20:17;9.77;;;5.43;;
41739;SDS011;27422;52.444;13.300;2022-10-30T08:22:47;11.93;;;5.82;;
41739;SDS011;27422;52.444;13.300;2022-10-30T08:25:14;10.68;;;5.63;;
41739;SDS011;27422;52.444;13.300;2022-10-30T08:30:22;10.75;;;5.35;;
41739;SDS011;27422;52.444;13.300;2022-10-30T08:32:48;12.23;;;5.40;;
41739;SDS011;27422;52.444;13.300;2022-10-30T08:35:14;11.32;;;6.25;;
41739;SDS011;27422;52.444;13.300;2022-10-30T08:37:40;10.20;;;5.13;;
41739;SDS011;27422;52.444;13.300;2022-10-30T08:40:06;10.25;;;5.28;;
41739;SDS011;27422;52.444;13.300;2022-10-30T08:42:33;11.07;;;5.50;;
41739;SDS011;27422;52.444;13.300;2022-10-30T08:44:59;12.52;;;5.43;;
41739;SDS011;27422;52.444;13.300;2022-10-30T08:47:27;10.95;;;5.03;;
41739;SDS011;27422;52.444;13.300;2022-10-30T08:49:54;8.75;;;5.30;;
41739;SDS011;27422;52.444;13.300;2022-10-30T08:52:20;11.18;;;5.22;;
41739;SDS011;27422;52.444;13.300;2022-10-30T08:54:45;15.23;;;5.93;;
41739;SDS011;27422;52.444;13.300;2022-10-30T08:57:11;8.88;;;5.25;;
41739;SDS011;27422;52.444;13.300;2022-10-30T08:59:36;10.40;;;4.82;;
41739;SDS011;27422;52.444;13.300;2022-10-30T09:02:02;10.07;;;4.75;;
41739;SDS011;27422;52.444;13.300;2022-10-30T09:04:27;7.97;;;5.10;;
41739;SDS011;27422;52.444;13.300;2022-10-30T09:06:52;12.35;;;4.68;;
41739;SDS011;27422;52.444;13.300;2022-10-30T09:09:18;11.55;;;4.95;;
41739;SDS011;27422;52.444;13.300;2022-10-30T09:11:43;11.95;;;5.40;;
41739;SDS011;27422;52.444;13.300;2022-10-30T09:14:09;8.20;;;4.57;;
41739;SDS011;27422;52.444;13.300;2022-10-30T09:16:37;12.60;;;5.00;;
41739;SDS011;27422;52.444;13.300;2022-10-30T09:19:02;8.60;;;4.78;;
41739;SDS011;27422;52.444;13.300;2022-10-30T09:21:33;9.73;;;4.65;;
41739;SDS011;27422;52.444;13.300;2022-10-30T09:23:58;8.55;;;4.80;;
41739;SDS011;27422;52.444;13.300;2022-10-30T09:26:31;11.13;;;5.70;;
41739;SDS011;27422;52.444;13.300;2022-10-30T09:28:58;9.10;;;4.85;;
41739;SDS011;27422;52.444;13.300;2022-10-30T09:31:27;8.43;;;4.47;;
41739;SDS011;27422;52.444;13.300;2022-10-30T09:34:04;8.95;;;4.10;;
41739;SDS011;27422;52.444;13.300;2022-10-30T09:36:32;9.75;;;4.75;;
41739;SDS011;27422;52.444;13.300;2022-10-30T09:38:58;9.35;;;4.35;;
41739;SDS011;27422;52.444;13.300;2022-10-30T09:41:37;7.78;;;4.40;;
41739;SDS011;27422;52.444;13.300;2022-10-30T09:44:13;10.25;;;4.35;;
41739;SDS011;27422;52.444;13.300;2022-10-30T09:52:36;9.30;;;3.90;;
41739;SDS011;27422;52.444;13.300;2022-10-30T09:55:28;7.97;;;4.20;;
41739;SDS011;27422;52.444;13.300;2022-10-30T09:58:00;7.85;;;3.80;;
41739;SDS011;27422;52.444;13.300;2022-10-30T10:00:36;7.45;;;3.83;;
41739;SDS011;27422;52.444;13.300;2022-10-30T10:03:19;8.50;;;3.42;;
41739;SDS011;27422;52.444;13.300;2022-10-30T10:06:16;7.22;;;3.50;;
41739;SDS011;27422;52.444;13.300;2022-10-30T10:08:44;8.50;;;3.70;;
41739;SDS011;27422;52.444;13.300;2022-10-30T10:11:18;7.18;;;4.05;;
41739;SDS011;27422;52.444;13.300;2022-10-30T10:13:54;7.40;;;3.40;;
41739;SDS011;27422;52.444;13.300;2022-10-30T10:16:24;6.25;;;3.67;;
41739;SDS011;27422;52.444;13.300;2022-10-30T10:21:43;7.57;;;3.70;;
41739;SDS011;27422;52.444;13.300;2022-10-30T10:24:18;7.65;;;3.00;;
41739;SDS011;27422;52.444;13.300;2022-10-30T10:27:07;7.15;;;3.20;;
41739;SDS011;27422;52.444;13.300;2022-10-30T10:51:13;10.00;;;3.28;;
41739;SDS011;27422;52.444;13.300;2022-10-30T10:54:01;8.45;;;3.42;;
41739;SDS011;27422;52.444;13.300;2022-10-30T10:56:30;6.35;;;2.63;;
41739;SDS011;27422;52.444;13.300;2022-10-30T10:58:59;5.75;;;2.58;;
41739;SDS011;27422;52.444;13.300;2022-10-30T11:01:41;6.00;;;2.40;;
41739;SDS011;27422;52.444;13.300;2022-10-30T11:04:13;6.65;;;2.45;;
41739;SDS011;27422;52.444;13.300;2022-10-30T11:06:48;6.63;;;2.70;;
41739;SDS011;27422;52.444;13.300;2022-10-30T11:09:16;6.22;;;2.42;;
41739;SDS011;27422;52.444;13.300;2022-10-30T11:11:48;6.55;;;2.80;;
41739;SDS011;27422;52.444;13.300;2022-10-30T11:14:16;6.70;;;2.25;;
41739;SDS011;27422;52.444;13.300;2022-10-30T11:19:47;8.45;;;2.30;;
41739;SDS011;27422;52.444;13.300;2022-10-30T11:22:32;7.22;;;2.60;;
41739;SDS011;27422;52.444;13.300;2022-10-30T11:28:03;5.20;;;2.22;;
41739;SDS011;27422;52.444;13.300;2022-10-30T11:30:29;5.60;;;2.15;;
41739;SDS011;27422;52.444;13.300;2022-10-30T11:32:55;5.50;;;2.35;;
41739;SDS011;27422;52.444;13.300;2022-10-30T11:35:21;7.05;;;2.20;;
41739;SDS011;27422;52.444;13.300;2022-10-30T11:37:51;6.90;;;2.50;;
41739;SDS011;27422;52.444;13.300;2022-10-30T11:40:35;5.60;;;2.33;;
41739;SDS011;27422;52.444;13.300;2022-10-30T11:43:01;7.38;;;2.25;;
41739;SDS011;27422;52.444;13.300;2022-10-30T11:45:38;5.13;;;2.35;;
41739;SDS011;27422;52.444;13.300;2022-10-30T11:48:17;5.93;;;2.22;;
41739;SDS011;27422;52.444;13.300;2022-10-30T11:50:46;6.95;;;2.30;;
41739;SDS011;27422;52.444;13.300;2022-10-30T11:53:18;5.18;;;2.45;;
41739;SDS011;27422;52.444;13.300;2022-10-30T11:55:46;6.00;;;2.50;;
41739;SDS011;27422;52.444;13.300;2022-10-30T11:58:27;6.32;;;2.53;;
41739;SDS011;27422;52.444;13.300;2022-10-30T12:01:02;6.57;;;2.45;;
41739;SDS011;27422;52.444;13.300;2022-10-30T12:03:33;10.43;;;2.80;;
41739;SDS011;27422;52.444;13.300;2022-10-30T12:06:05;8.00;;;2.20;;
41739;SDS011;27422;52.444;13.300;2022-10-30T12:08:35;6.50;;;2.38;;
41739;SDS011;27422;52.444;13.300;2022-10-30T12:11:01;7.05;;;2.35;;
41739;SDS011;27422;52.444;13.300;2022-10-30T12:13:32;5.63;;;2.35;;
41739;SDS011;27422;52.444;13.300;2022-10-30T12:16:11;5.68;;;2.40;;
41739;SDS011;27422;52.444;13.300;2022-10-30T12:18:41;6.25;;;2.17;;
41739;SDS011;27422;52.444;13.300;2022-10-30T12:21:07;5.43;;;2.50;;
41739;SDS011;27422;52.444;13.300;2022-10-30T12:23:32;7.78;;;2.55;;
41739;SDS011;27422;52.444;13.300;2022-10-30T12:25:59;7.95;;;2.75;;
41739;SDS011;27422;52.444;13.300;2022-10-30T12:28:30;6.07;;;2.60;;
41739;SDS011;27422;52.444;13.300;2022-10-30T12:30:57;8.20;;;2.78;;
41739;SDS011;27422;52.444;13.300;2022-10-30T12:33:37;10.32;;;3.30;;
41739;SDS011;27422;52.444;13.300;2022-10-30T12:36:25;15.52;;;3.08;;
41739;SDS011;27422;52.444;13.300;2022-10-30T12:38:57;7.70;;;2.60;;
41739;SDS011;27422;52.444;13.300;2022-10-30T12:41:32;5.95;;;2.55;;
41739;SDS011;27422;52.444;13.300;2022-10-30T12:44:31;6.53;;;2.47;;
41739;SDS011;27422;52.444;13.300;2022-10-30T12:47:08;4.93;;;2.10;;
41739;SDS011;27422;52.444;13.300;2022-10-30T12:49:40;6.20;;;2.63;;
41739;SDS011;27422;52.444;13.300;2022-10-30T12:59:16;5.25;;;2.50;;
41739;SDS011;27422;52.444;13.300;2022-10-30T13:03:40;6.88;;;2.35;;
41739;SDS011;27422;52.444;13.300;2022-10-30T13:06:18;7.65;;;2.70;;
41739;SDS011;27422;52.444;13.300;2022-10-30T13:14:21;7.53;;;2.47;;
41739;SDS011;27422;52.444;13.300;2022-10-30T13:19:22;4.03;;;2.13;;
41739;SDS011;27422;52.444;13.300;2022-10-30T13:22:30;6.68;;;2.65;;
41739;SDS011;27422;52.444;13.300;2022-10-30T13:27:56;5.32;;;2.45;;
41739;SDS011;27422;52.444;13.300;2022-10-30T13:30:29;5.88;;;2.50;;
41739;SDS011;27422;52.444;13.300;2022-10-30T13:33:13;6.35;;;2.53;;
41739;SDS011;27422;52.444;13.300;2022-10-30T13:38:25;5.38;;;2.35;;
41739;SDS011;27422;52.444;13.300;2022-10-30T13:41:02;5.22;;;2.25;;
41739;SDS011;27422;52.444;13.300;2022-10-30T13:51:43;6.78;;;2.40;;
41739;SDS011;27422;52.444;13.300;2022-10-30T13:57:19;6.13;;;2.60;;
41739;SDS011;27422;52.444;13.300;2022-10-30T13:59:57;5.97;;;2.50;;
41739;SDS011;27422;52.444;13.300;2022-10-30T14:10:30;9.02;;;2.80;;
41739;SDS011;27422;52.444;13.300;2022-10-30T14:16:11;6.75;;;2.47;;
41739;SDS011;27422;52.444;13.300;2022-10-30T14:22:02;7.38;;;2.53;;
41739;SDS011;27422;52.444;13.300;2022-10-30T14:24:46;6.30;;;2.70;;
41739;SDS011;27422;52.444;13.300;2022-10-30T14:27:25;7.50;;;3.40;;
41739;SDS011;27422;52.444;13.300;2022-10-30T14:30:19;7.63;;;2.80;;
41739;SDS011;27422;52.444;13.300;2022-10-30T14:32:47;6.88;;;2.60;;
41739;SDS011;27422;52.444;13.300;2022-10-30T14:38:22;7.47;;;2.67;;
41739;SDS011;27422;52.444;13.300;2022-10-30T14:46:09;6.97;;;2.45;;
41739;SDS011;27422;52.444;13.300;2022-10-30T14:48:50;5.40;;;2.30;;
41739;SDS011;27422;52.444;13.300;2022-10-30T14:57:44;8.20;;;3.20;;
41739;SDS011;27422;52.444;13.300;2022-10-30T15:00:41;8.50;;;3.50;;
41739;SDS011;27422;52.444;13.300;2022-10-30T15:03:14;8.32;;;3.25;;
41739;SDS011;27422;52.444;13.300;2022-10-30T15:05:59;9.65;;;2.97;;
41739;SDS011;27422;52.444;13.300;2022-10-30T15:08:44;6.40;;;2.85;;
41739;SDS011;27422;52.444;13.300;2022-10-30T15:14:48;9.32;;;4.28;;
41739;SDS011;27422;52.444;13.300;2022-10-30T15:17:31;7.75;;;3.53;;
41739;SDS011;27422;52.444;13.300;2022-10-30T15:20:25;8.88;;;3.80;;
41739;SDS011;27422;52.444;13.300;2022-10-30T15:22:56;6.28;;;3.40;;
41739;SDS011;27422;52.444;13.300;2022-10-30T15:25:25;9.00;;;3.28;;
41739;SDS011;27422;52.444;13.300;2022-10-30T15:27:55;7.28;;;3.47;;
41739;SDS011;27422;52.444;13.300;2022-10-30T15:30:42;7.97;;;3.35;;
41739;SDS011;27422;52.444;13.300;2022-10-30T15:33:40;6.18;;;3.20;;
41739;SDS011;27422;52.444;13.300;2022-10-30T15:36:14;8.13;;;3.28;;
41739;SDS011;27422;52.444;13.300;2022-10-30T15:38:43;6.78;;;3.35;;
41739;SDS011;27422;52.444;13.300;2022-10-30T15:41:09;9.48;;;3.35;;
41739;SDS011;27422;52.444;13.300;2022-10-30T15:47:16;9.50;;;3.72;;
41739;SDS011;27422;52.444;13.300;2022-10-30T15:49:49;6.15;;;3.40;;
41739;SDS011;27422;52.444;13.300;2022-10-30T15:52:20;6.90;;;2.92;;
41739;SDS011;27422;52.444;13.300;2022-10-30T15:55:12;8.82;;;3.58;;
41739;SDS011;27422;52.444;13.300;2022-10-30T15:57:40;12.65;;;4.10;;
41739;SDS011;27422;52.444;13.300;2022-10-30T16:00:41;8.00;;;3.15;;
41739;SDS011;27422;52.444;13.300;2022-10-30T16:03:05;8.85;;;3.65;;
41739;SDS011;27422;52.444;13.300;2022-10-30T16:05:36;6.90;;;3.63;;
41739;SDS011;27422;52.444;13.300;2022-10-30T16:08:02;8.93;;;4.22;;
41739;SDS011;27422;52.444;13.300;2022-10-30T16:10:33;9.15;;;3.92;;
41739;SDS011;27422;52.444;13.300;2022-10-30T16:12:59;8.00;;;4.18;;
41739;SDS011;27422;52.444;13.300;2022-10-30T16:15:29;8.70;;;4.07;;
41739;SDS011;27422;52.444;13.300;2022-10-30T16:17:58;8.40;;;3.92;;
41739;SDS011;27422;52.444;13.300;2022-10-30T16:20:31;8.60;;;3.70;;
41739;SDS011;27422;52.444;13.300;2022-10-30T16:23:00;8.55;;;3.80;;
41739;SDS011;27422;52.444;13.300;2022-10-30T16:25:26;9.80;;;4.95;;
41739;SDS011;27422;52.444;13.300;2022-10-30T16:28:01;9.13;;;4.40;;
41739;SDS011;27422;52.444;13.300;2022-10-30T16:30:27;9.60;;;4.03;;
41739;SDS011;27422;52.444;13.300;2022-10-30T16:32:57;7.68;;;4.50;;
41739;SDS011;27422;52.444;13.300;2022-10-30T16:35:22;9.70;;;5.30;;
41739;SDS011;27422;52.444;13.300;2022-10-30T16:37:51;8.95;;;4.72;;
41739;SDS011;27422;52.444;13.300;2022-10-30T16:40:18;5.97;;;4.00;;
41739;SDS011;27422;52.444;13.300;2022-10-30T16:42:56;7.75;;;4.25;;
41739;SDS011;27422;52.444;13.300;2022-10-30T16:47:51;8.52;;;4.47;;
41739;SDS011;27422;52.444;13.300;2022-10-30T16:50:29;9.40;;;4.10;;
41739;SDS011;27422;52.444;13.300;2022-10-30T16:53:04;8.98;;;3.97;;